Terminal Aerodrome Forecast
Issued by NWS

Home | Current Version | Previous Version | Text Only | Print | Product List | Glossary On
Versions: 1 2 3 4 5 6 7 8 9 10 11 12 13 14 15 16 17 18 19 20 21 22 23 24 25 26 27 28 29 30 31 32 33 34 35 36 37 38 39 40 41 42 43 44 45 46
000
FTUS41 KALY 161120
TAFPSF
TAF
KPSF 161120Z 1612/1712 23007KT P6SM FEW030
     FM161600 26009KT P6SM VCSH SCT030 OVC050
     FM162300 29012G24KT P6SM VCSH BKN035
     FM170200 30009KT P6SM SCT035
     FM170600 VRB03KT P6SM SKC=

USA.gov is the U.S. government's official web portal to all federal, state and local government web resources and services.